Time;durP1;ratioP1;P1;durP2;ratioP2;P2;SDS_P1;SDS_P2;PMS_P1;PMS_P2;Temp;Humidity;BMP_temperature;BMP_pressure;BME280_temperature;BME280_humidity;BME280_pressure;Samples;Min_cycle;Max_cycle;Signal;HPM_P1;HPM_P2
2023/08/25 00:02:19;;;;;;;16.75;12.00;;;;;;;25.73;59.33;99213.16;5021902;28;20108;-85
2023/08/25 00:04:45;;;;;;;17.33;11.90;;;;;;;25.74;59.31;99219.72;5034299;28;20030;-84
2023/08/25 00:07:11;;;;;;;11.90;10.45;;;;;;;25.69;59.55;99220.22;5016240;28;20034;-84
2023/08/25 00:09:36;;;;;;;14.77;11.52;;;;;;;25.75;59.36;99212.72;5016656;28;20060;-85
2023/08/25 00:12:03;;;;;;;14.93;12.00;;;;;;;25.79;59.31;99208.53;5036930;28;20026;-84
2023/08/25 00:14:28;;;;;;;13.63;11.40;;;;;;;25.84;59.06;99207.19;5033419;28;20025;-84
2023/08/25 00:16:54;;;;;;;14.35;12.38;;;;;;;25.87;58.82;99212.03;5025886;28;20507;-84
2023/08/25 00:19:20;;;;;;;13.68;12.25;;;;;;;25.90;58.80;99213.19;5016384;28;20431;-84
2023/08/25 00:21:45;;;;;;;17.70;12.20;;;;;;;25.76;59.02;99211.47;5015934;28;20029;-84
2023/08/25 00:24:10;;;;;;;15.05;12.55;;;;;;;25.76;58.98;99200.00;5016291;28;20033;-84
2023/08/25 00:26:39;;;;;;;16.65;11.77;;;;;;;25.88;58.37;99210.75;5014801;28;20057;-84
2023/08/25 00:29:06;;;;;;;18.65;11.25;;;;;;;25.80;58.68;99200.72;5019440;28;20055;-84
2023/08/25 00:31:32;;;;;;;19.17;11.20;;;;;;;25.61;58.93;99191.78;5001482;28;20024;-84
2023/08/25 00:34:02;;;;;;;16.00;12.52;;;;;;;25.73;59.07;99218.09;5019706;28;20032;-84
2023/08/25 00:36:28;;;;;;;12.93;11.57;;;;;;;25.75;58.94;99215.59;5033533;28;20090;-83
2023/08/25 00:38:54;;;;;;;14.35;11.85;;;;;;;25.71;58.75;99212.81;5015856;28;20014;-84
2023/08/25 00:41:19;;;;;;;14.95;13.23;;;;;;;25.71;58.80;99212.03;5033461;28;20025;-84
2023/08/25 00:43:45;;;;;;;13.43;11.05;;;;;;;25.67;59.03;99214.13;5014402;28;20120;-85
2023/08/25 00:46:12;;;;;;;15.02;11.65;;;;;;;25.60;59.12;99215.13;5022981;28;20020;-85
2023/08/25 00:48:38;;;;;;;14.98;11.95;;;;;;;25.34;59.88;99209.94;5035383;28;20021;-84
2023/08/25 00:51:05;;;;;;;17.15;13.07;;;;;;;24.92;61.52;99215.34;5023654;28;20518;-84
2023/08/25 00:53:32;;;;;;;18.48;14.27;;;;;;;24.89;61.79;99208.44;5033264;28;20025;-84
2023/08/25 00:55:58;;;;;;;18.65;13.40;;;;;;;25.22;60.85;99207.78;5028317;28;20078;-84
2023/08/25 00:58:24;;;;;;;14.43;12.07;;;;;;;25.29;60.22;99196.16;5015327;28;20117;-84
2023/08/25 01:00:51;;;;;;;23.17;12.18;;;;;;;25.43;60.01;99217.94;5021591;28;20109;-84
2023/08/25 01:03:17;;;;;;;30.42;12.05;;;;;;;25.48;59.71;99222.31;5030627;28;20457;-84
2023/08/25 01:05:43;;;;;;;14.48;12.18;;;;;;;25.43;59.84;99206.47;5032013;28;20069;-84
2023/08/25 01:08:08;;;;;;;14.30;12.15;;;;;;;25.36;59.82;99221.75;5030916;28;20022;-84
2023/08/25 01:11:03;;;;;;;14.30;12.55;;;;;;;25.22;61.33;99227.81;5015244;28;20079;-84
2023/08/25 01:13:44;;;;;;;17.25;12.07;;;;;;;25.06;60.94;99219.97;4982152;28;20037;-84
2023/08/25 01:16:16;;;;;;;14.05;12.38;;;;;;;24.64;62.11;99220.38;5015307;28;20127;-84
2023/08/25 01:18:43;;;;;;;17.60;12.43;;;;;;;24.72;62.06;99223.88;5026664;28;20086;-84
2023/08/25 01:21:09;;;;;;;19.98;12.95;;;;;;;24.93;61.54;99229.22;5015095;28;20031;-84
2023/08/25 01:24:13;;;;;;;14.82;12.98;;;;;;;24.78;62.17;99225.81;5024697;28;20028;-83
2023/08/25 01:26:39;;;;;;;15.57;13.90;;;;;;;24.81;62.19;99229.88;4958945;28;20118;-84
2023/08/25 01:29:04;;;;;;;16.17;13.15;;;;;;;24.75;62.36;99235.25;5002911;28;20120;-84
2023/08/25 01:31:30;;;;;;;16.70;12.90;;;;;;;24.62;62.73;99222.84;5010278;28;20103;-84
2023/08/25 01:33:56;;;;;;;15.02;12.70;;;;;;;24.58;62.70;99222.09;5002500;28;20559;-84
2023/08/25 01:36:25;;;;;;;17.90;12.43;;;;;;;24.63;62.76;99233.03;5031950;28;20408;-83
2023/08/25 01:38:56;;;;;;;19.23;13.75;;;;;;;24.24;64.10;99229.66;5014159;28;20492;-84
2023/08/25 01:41:29;;;;;;;16.83;13.85;;;;;;;24.19;64.26;99227.28;5014624;28;20037;-83
2023/08/25 01:43:56;;;;;;;16.27;13.13;;;;;;;24.21;63.73;99217.03;5030944;28;20123;-83
2023/08/25 01:46:23;;;;;;;15.68;13.63;;;;;;;24.37;63.61;99233.50;5013605;28;20029;-84
2023/08/25 01:48:51;;;;;;;22.40;13.55;;;;;;;24.07;63.50;99232.41;5014716;28;20029;-84
2023/08/25 01:51:17;;;;;;;18.35;14.73;;;;;;;23.34;66.21;99240.38;5012945;28;20475;-84
2023/08/25 01:53:53;;;;;;;20.00;14.80;;;;;;;22.95;67.38;99237.59;5012615;28;20545;-84
2023/08/25 01:56:19;;;;;;;17.63;14.57;;;;;;;22.73;68.04;99239.88;5013575;28;20423;-81
2023/08/25 01:58:45;;;;;;;15.68;13.77;;;;;;;22.22;69.39;99240.38;5013451;28;20116;-82
2023/08/25 02:01:10;;;;;;;16.27;14.40;;;;;;;21.94;70.32;99235.72;5012431;28;20492;-81
2023/08/25 02:03:36;;;;;;;27.15;14.93;;;;;;;22.10;70.73;99235.19;5026810;28;20416;-82
2023/08/25 02:06:03;;;;;;;20.80;15.65;;;;;;;22.16;70.52;99242.03;5000028;28;20037;-82
2023/08/25 02:08:28;;;;;;;18.45;15.27;;;;;;;21.93;72.14;99243.44;5011237;28;20449;-82
2023/08/25 02:10:54;;;;;;;21.52;15.73;;;;;;;21.72;72.89;99230.19;5013439;28;20109;-82
2023/08/25 02:13:19;;;;;;;24.58;16.90;;;;;;;21.88;73.14;99250.38;5012781;28;20416;-82
2023/08/25 02:15:50;;;;;;;23.65;16.40;;;;;;;21.92;72.89;99244.66;5015875;28;20167;-82
2023/08/25 02:18:16;;;;;;;23.50;16.80;;;;;;;21.94;73.38;99244.25;5013915;28;20033;-81
2023/08/25 02:20:41;;;;;;;22.33;16.83;;;;;;;21.88;73.60;99239.00;5013329;28;20048;-82
2023/08/25 02:23:08;;;;;;;18.67;15.55;;;;;;;22.10;72.69;99252.28;5014157;28;20415;-82
2023/08/25 02:25:34;;;;;;;24.45;16.02;;;;;;;21.99;73.02;99252.34;5011616;28;20057;-82
2023/08/25 02:28:00;;;;;;;23.40;16.90;;;;;;;22.01;72.96;99252.72;5012969;28;20527;-81
2023/08/25 02:30:25;;;;;;;23.83;17.45;;;;;;;22.06;72.96;99260.00;5013067;28;20081;-81
2023/08/25 02:32:51;;;;;;;20.55;16.15;;;;;;;22.29;71.92;99259.44;5012042;28;20021;-81
2023/08/25 02:35:16;;;;;;;20.58;16.02;;;;;;;22.56;71.04;99268.16;5029582;28;20033;-81
2023/08/25 02:38:06;;;;;;;19.90;15.63;;;;;;;22.48;70.70;99260.91;5012853;28;20017;-81
2023/08/25 02:40:33;;;;;;;17.45;15.50;;;;;;;22.56;70.72;99262.47;5012062;28;20026;-82
2023/08/25 02:43:00;;;;;;;19.30;15.27;;;;;;;22.89;69.32;99273.50;5012457;28;20065;-81
2023/08/25 02:45:26;;;;;;;19.55;14.52;;;;;;;23.07;68.73;99273.31;5011479;28;20025;-81
2023/08/25 02:47:53;;;;;;;18.70;13.98;;;;;;;23.16;67.61;99271.97;5031458;28;20048;-81
2023/08/25 02:50:19;;;;;;;19.67;15.00;;;;;;;23.20;67.25;99264.19;5029294;28;20480;-81
2023/08/25 02:52:44;;;;;;;19.42;14.55;;;;;;;23.27;67.35;99275.53;5012516;28;20029;-81
2023/08/25 02:55:14;;;;;;;18.15;13.60;;;;;;;23.08;67.67;99280.63;5010196;28;20500;-81
2023/08/25 02:57:40;;;;;;;18.17;14.73;;;;;;;23.01;67.62;99266.44;5011624;28;20026;-82
2023/08/25 03:00:12;;;;;;;16.27;14.32;;;;;;;23.10;67.46;99266.75;5011643;28;20095;-81
2023/08/25 03:02:37;;;;;;;22.45;14.85;;;;;;;23.19;67.00;99269.06;5013476;28;20029;-82
2023/08/25 03:05:03;;;;;;;19.33;13.90;;;;;;;23.06;67.75;99291.66;5012553;28;20095;-82
2023/08/25 03:07:29;;;;;;;18.95;13.02;;;;;;;22.78;68.73;99284.22;5030001;28;20021;-81
2023/08/25 03:09:55;;;;;;;21.60;14.70;;;;;;;22.65;69.30;99279.06;5029130;28;20040;-82
2023/08/25 03:12:20;;;;;;;17.77;14.27;;;;;;;22.75;69.24;99285.88;5013555;28;20029;-82
2023/08/25 03:14:46;;;;;;;18.13;13.88;;;;;;;22.71;69.13;99291.59;5016790;28;20033;-82
2023/08/25 03:17:11;;;;;;;23.70;15.98;;;;;;;23.06;67.71;99294.50;5015524;28;20056;-82
2023/08/25 03:19:40;;;;;;;32.50;14.93;;;;;;;22.96;67.97;99289.72;5017172;28;20025;-82
2023/08/25 03:22:05;;;;;;;18.65;13.27;;;;;;;22.71;69.00;99279.41;5026214;28;20032;-82
2023/08/25 03:24:31;;;;;;;18.77;14.75;;;;;;;22.75;68.97;99285.88;5033927;28;20045;-82
2023/08/25 03:26:59;;;;;;;19.33;14.38;;;;;;;22.86;68.51;99275.16;5015438;28;20025;-82
2023/08/25 03:29:25;;;;;;;20.55;15.10;;;;;;;23.14;67.74;99293.16;5015196;28;20040;-82
2023/08/25 03:31:51;;;;;;;24.80;14.30;;;;;;;22.86;68.49;99285.75;5016270;28;20035;-83
2023/08/25 03:34:16;;;;;;;20.58;14.00;;;;;;;22.85;68.69;99289.84;5032201;28;20034;-82
2023/08/25 03:36:42;;;;;;;23.77;14.50;;;;;;;22.76;68.84;99293.19;5015837;28;20037;-82
2023/08/25 03:39:07;;;;;;;24.75;14.45;;;;;;;22.73;68.59;99285.50;5016250;28;20037;-82
2023/08/25 03:41:33;;;;;;;23.65;15.48;;;;;;;22.55;68.95;99275.06;5014838;28;20052;-82
2023/08/25 03:43:58;;;;;;;21.88;14.75;;;;;;;22.46;70.21;99291.84;5015671;28;20091;-82
2023/08/25 03:46:24;;;;;;;29.33;14.82;;;;;;;22.42;69.54;99271.91;5012508;28;20416;-82
2023/08/25 03:48:49;;;;;;;20.40;13.30;;;;;;;22.68;69.35;99285.94;5033379;28;20021;-82
2023/08/25 03:51:15;;;;;;;23.00;15.40;;;;;;;22.80;69.20;99299.66;5015715;28;20040;-82
2023/08/25 03:53:40;;;;;;;18.77;14.15;;;;;;;22.74;69.64;99294.84;5015600;28;20033;-81
2023/08/25 03:56:06;;;;;;;20.58;14.43;;;;;;;22.80;69.20;99288.25;5014393;28;20040;-81
2023/08/25 03:58:32;;;;;;;23.58;15.15;;;;;;;22.90;68.78;99297.13;5014958;28;20045;-82
2023/08/25 04:00:58;;;;;;;22.58;14.63;;;;;;;22.80;69.13;99288.25;5015424;28;20084;-82
2023/08/25 04:03:24;;;;;;;31.10;15.18;;;;;;;22.93;69.09;99296.28;5016397;28;20511;-83
2023/08/25 04:05:49;;;;;;;22.70;14.20;;;;;;;22.94;68.79;99300.75;5019157;28;20057;-82
2023/08/25 04:08:15;;;;;;;19.50;14.10;;;;;;;22.93;68.32;99302.78;5015622;28;20017;-82
2023/08/25 04:10:44;;;;;;;31.40;16.52;;;;;;;23.02;67.94;99284.38;5014740;28;20136;-83
2023/08/25 04:13:10;;;;;;;26.50;14.45;;;;;;;22.91;68.70;99293.84;5004504;28;20061;-83
2023/08/25 04:15:36;;;;;;;26.50;14.18;;;;;;;22.97;68.41;99306.41;5032162;28;20087;-83
2023/08/25 04:18:02;;;;;;;39.28;16.35;;;;;;;22.91;68.84;99301.59;5016129;28;20175;-83
2023/08/25 04:20:28;;;;;;;28.23;13.65;;;;;;;22.95;68.48;99308.88;5031916;28;20029;-82
2023/08/25 04:22:53;;;;;;;30.88;15.40;;;;;;;23.01;68.47;99297.81;5015575;28;20029;-82
2023/08/25 04:25:19;;;;;;;25.77;15.10;;;;;;;23.07;68.31;99303.84;5032669;28;20073;-82
2023/08/25 04:27:44;;;;;;;28.95;15.95;;;;;;;23.19;68.27;99300.44;5014476;28;20061;-83
2023/08/25 04:30:10;;;;;;;27.52;14.43;;;;;;;23.36;67.68;99295.00;5014681;28;20021;-82
2023/08/25 04:32:36;;;;;;;39.60;17.30;;;;;;;23.30;67.84;99308.94;5032148;28;20470;-83
2023/08/25 04:35:01;;;;;;;61.13;17.73;;;;;;;23.36;67.96;99312.91;5013414;28;20037;-83
2023/08/25 04:37:29;;;;;;;24.80;16.35;;;;;;;23.33;67.88;99305.22;5013827;28;20087;-83
2023/08/25 04:39:55;;;;;;;25.50;16.63;;;;;;;23.45;67.65;99308.72;5033272;28;20036;-83
2023/08/25 04:42:22;;;;;;;30.45;17.20;;;;;;;23.62;67.54;99307.69;5031535;28;20504;-83
2023/08/25 04:44:48;;;;;;;26.83;17.55;;;;;;;23.74;66.64;99299.78;5014744;28;20049;-83
2023/08/25 04:47:15;;;;;;;26.00;16.55;;;;;;;23.77;66.66;99304.59;5030409;28;20419;-82
2023/08/25 04:49:41;;;;;;;43.28;18.25;;;;;;;23.88;65.98;99287.34;5014131;28;20030;-83
2023/08/25 04:52:06;;;;;;;85.32;19.70;;;;;;;23.83;66.42;99300.06;5030278;28;20064;-82
2023/08/25 04:54:31;;;;;;;36.63;18.13;;;;;;;23.54;67.10;99295.56;5013573;28;20088;-83
2023/08/25 04:56:57;;;;;;;29.65;18.15;;;;;;;23.44;68.13;99315.69;5014245;28;20037;-83
2023/08/25 04:59:24;;;;;;;33.92;17.70;;;;;;;23.39;68.02;99314.91;5015151;28;20578;-83
2023/08/25 05:01:49;;;;;;;22.05;17.30;;;;;;;23.31;68.73;99309.72;5014266;28;20087;-83
2023/08/25 05:04:15;;;;;;;34.17;17.50;;;;;;;23.29;68.21;99295.91;5014087;28;20488;-83
2023/08/25 05:06:40;;;;;;;42.58;18.20;;;;;;;23.48;67.92;99310.72;5031113;28;20520;-83
2023/08/25 05:09:06;;;;;;;31.73;18.08;;;;;;;23.86;67.06;99316.31;5014232;28;20123;-83
2023/08/25 05:11:33;;;;;;;25.20;16.42;;;;;;;23.76;67.11;99303.00;5013686;28;20040;-83
2023/08/25 05:13:59;;;;;;;31.45;17.33;;;;;;;24.13;66.42;99315.53;5014017;28;20037;-83
2023/08/25 05:16:25;;;;;;;24.92;18.05;;;;;;;24.15;65.44;99327.34;5013267;28;20429;-83
2023/08/25 05:18:50;;;;;;;30.38;17.15;;;;;;;24.17;65.71;99322.00;5012911;28;20030;-83
2023/08/25 05:21:16;;;;;;;18.92;15.27;;;;;;;24.40;64.58;99314.72;5014361;28;20037;-84
2023/08/25 05:23:46;;;;;;;35.63;17.15;;;;;;;24.32;64.88;99318.91;5014077;28;20056;-82
2023/08/25 05:26:15;;;;;;;29.77;17.13;;;;;;;24.48;64.20;99309.66;5006014;28;20043;-82
2023/08/25 05:28:40;;;;;;;41.90;17.08;;;;;;;24.79;63.14;99324.66;5020209;28;20017;-82
2023/08/25 05:31:06;;;;;;;27.77;15.70;;;;;;;24.93;62.47;99334.22;5004386;28;20032;-85
2023/08/25 05:33:31;;;;;;;20.33;14.88;;;;;;;24.70;62.64;99318.66;5002340;28;20021;-84
2023/08/25 05:35:57;;;;;;;16.88;14.63;;;;;;;25.08;61.97;99334.75;5005916;28;20032;-83
2023/08/25 05:38:22;;;;;;;31.90;14.93;;;;;;;24.97;61.93;99340.66;5005722;28;20029;-83
2023/08/25 05:40:48;;;;;;;18.88;14.73;;;;;;;24.93;61.62;99337.06;5032124;28;20056;-84
2023/08/25 05:43:13;;;;;;;16.88;14.48;;;;;;;24.61;62.72;99327.81;5003992;28;20052;-85
2023/08/25 05:45:39;;;;;;;23.70;15.95;;;;;;;24.60;62.66;99328.22;5014802;28;20381;-85
2023/08/25 05:48:05;;;;;;;21.60;14.82;;;;;;;24.75;62.81;99329.63;5012817;28;20030;-86
2023/08/25 05:50:30;;;;;;;22.13;14.50;;;;;;;25.08;62.41;99343.34;5006498;28;20029;-86
2023/08/25 05:52:56;;;;;;;17.80;15.73;;;;;;;25.19;62.04;99343.13;5005629;28;20044;-82
2023/08/25 05:55:21;;;;;;;18.70;13.98;;;;;;;24.94;62.67;99350.13;5014128;28;20107;-82
2023/08/25 05:57:47;;;;;;;25.42;16.63;;;;;;;24.91;62.96;99336.72;5003842;28;20045;-84
2023/08/25 06:00:13;;;;;;;27.10;14.65;;;;;;;25.25;62.05;99335.66;5015229;28;20064;-84
2023/08/25 06:02:39;;;;;;;30.80;16.13;;;;;;;25.29;61.32;99332.72;5033093;28;20031;-83
2023/08/25 06:05:05;;;;;;;20.58;14.80;;;;;;;25.32;60.58;99332.63;5031990;28;20029;-83
2023/08/25 06:07:31;;;;;;;32.08;15.90;;;;;;;25.55;60.13;99336.69;5010839;28;20044;-83
2023/08/25 06:09:56;;;;;;;20.67;15.52;;;;;;;25.63;60.18;99335.28;5006937;28;20025;-83
2023/08/25 06:12:21;;;;;;;24.42;14.57;;;;;;;25.98;59.15;99325.53;5013845;28;20107;-83
2023/08/25 06:14:47;;;;;;;41.15;15.57;;;;;;;26.12;57.78;99327.25;5010315;28;20489;-83
2023/08/25 06:17:12;;;;;;;18.27;14.43;;;;;;;26.47;56.79;99337.06;5009528;28;20152;-83
2023/08/25 06:19:38;;;;;;;24.50;15.85;;;;;;;26.55;56.42;99322.56;5010969;28;20459;-83
2023/08/25 06:22:04;;;;;;;99.60;19.38;;;;;;;26.84;56.12;99330.41;5010040;28;20052;-84
2023/08/25 06:24:32;;;;;;;36.42;14.32;;;;;;;26.88;55.12;99311.88;5012113;28;20029;-83
2023/08/25 06:26:58;;;;;;;23.27;15.45;;;;;;;26.85;55.71;99323.41;5012762;28;20044;-84
2023/08/25 06:29:23;;;;;;;30.17;15.93;;;;;;;26.73;54.96;99314.28;5010875;28;20420;-81
2023/08/25 06:31:49;;;;;;;25.83;16.08;;;;;;;26.73;55.26;99297.06;5011183;28;20049;-83
2023/08/25 06:34:14;;;;;;;26.50;15.98;;;;;;;26.93;54.65;99322.00;5010268;28;20029;-85
2023/08/25 06:36:40;;;;;;;19.45;14.95;;;;;;;26.96;54.65;99323.13;5012519;28;20503;-85
2023/08/25 06:39:05;;;;;;;22.05;16.42;;;;;;;27.01;54.43;99326.25;5027838;28;20037;-82
2023/08/25 06:41:31;;;;;;;21.33;13.80;;;;;;;27.10;53.87;99324.81;5029766;28;20471;-85
2023/08/25 06:43:59;;;;;;;19.23;13.82;;;;;;;26.96;53.91;99315.34;5010592;28;20452;-85
2023/08/25 06:46:25;;;;;;;16.90;14.27;;;;;;;26.72;54.54;99327.00;5010459;28;20124;-85
2023/08/25 06:48:50;;;;;;;18.17;14.52;;;;;;;26.67;55.27;99313.22;5010976;28;20049;-85
2023/08/25 06:51:16;;;;;;;19.67;14.77;;;;;;;26.84;54.76;99313.97;5013602;28;20033;-84
2023/08/25 06:53:41;;;;;;;16.38;14.20;;;;;;;27.20;53.89;99320.84;5011424;28;20029;-83
2023/08/25 06:56:07;;;;;;;17.33;15.18;;;;;;;27.36;53.62;99319.16;5031102;28;20087;-83
2023/08/25 06:58:32;;;;;;;16.83;14.05;;;;;;;27.25;53.43;99308.78;5012082;28;20029;-84
2023/08/25 07:00:58;;;;;;;30.73;15.85;;;;;;;27.65;53.54;99329.84;5013332;28;20064;-83
2023/08/25 07:03:23;;;;;;;15.98;13.80;;;;;;;27.59;52.71;99329.59;5007248;28;20127;-85
2023/08/25 07:05:49;;;;;;;18.95;13.88;;;;;;;27.72;51.91;99326.72;5004568;28;20096;-83
2023/08/25 07:08:14;;;;;;;23.00;13.45;;;;;;;27.60;51.97;99332.00;5013513;28;20053;-83
2023/08/25 07:10:40;;;;;;;18.55;14.70;;;;;;;27.71;52.05;99330.88;5015062;28;20451;-84
2023/08/25 07:13:06;;;;;;;15.68;14.18;;;;;;;28.02;51.51;99324.59;5010177;28;20116;-83
2023/08/25 07:15:31;;;;;;;17.08;13.75;;;;;;;28.37;50.55;99329.66;5010088;28;20030;-83
2023/08/25 07:17:57;;;;;;;21.20;16.38;;;;;;;28.57;49.80;99320.75;4999239;28;20095;-82
2023/08/25 07:20:23;;;;;;;16.15;14.20;;;;;;;28.52;48.69;99319.25;5031044;28;20479;-82
2023/08/25 07:22:50;;;;;;;15.93;13.60;;;;;;;28.29;49.68;99320.47;5007279;28;20029;-83
2023/08/25 07:25:15;;;;;;;16.00;13.23;;;;;;;28.39;48.73;99327.09;4997309;28;20067;-82
2023/08/25 07:27:41;;;;;;;15.00;13.45;;;;;;;28.38;48.84;99317.69;5006661;28;20030;-83
2023/08/25 07:30:07;;;;;;;15.70;13.07;;;;;;;28.48;48.33;99321.47;5031674;28;20088;-86
2023/08/25 07:32:32;;;;;;;15.07;13.52;;;;;;;28.68;50.19;99326.16;5010878;28;20113;-83
2023/08/25 07:34:58;;;;;;;16.52;13.85;;;;;;;28.88;48.17;99325.06;5011551;28;20124;-85
2023/08/25 07:37:48;;;;;;;15.23;13.73;;;;;;;28.64;48.84;99325.44;5007266;28;20136;-87
2023/08/25 07:40:13;;;;;;;17.98;14.18;;;;;;;28.92;47.91;99294.91;5006023;28;20034;-85
2023/08/25 07:42:43;;;;;;;16.67;14.38;;;;;;;29.46;48.61;99309.41;5026561;28;20052;-85
2023/08/25 07:45:09;;;;;;;22.05;15.75;;;;;;;29.56;46.79;99308.19;5007503;28;20033;-83
2023/08/25 07:47:35;;;;;;;24.33;16.02;;;;;;;29.89;46.74;99312.69;5010154;28;20060;-85
2023/08/25 07:50:03;;;;;;;19.02;15.18;;;;;;;29.78;47.21;99312.31;5009696;28;20060;-85
2023/08/25 07:52:28;;;;;;;21.52;14.32;;;;;;;29.79;47.05;99311.03;5013472;28;20057;-85
2023/08/25 07:54:54;;;;;;;18.52;14.75;;;;;;;29.75;47.07;99308.28;5013217;28;20064;-84
2023/08/25 07:57:20;;;;;;;20.00;14.50;;;;;;;29.83;46.91;99305.91;5013038;28;20025;-85
2023/08/25 07:59:45;;;;;;;20.70;13.65;;;;;;;29.76;47.29;99312.78;5014842;28;20022;-82
2023/08/25 08:02:12;;;;;;;19.33;14.20;;;;;;;29.66;47.67;99306.16;5007586;28;20045;-86
2023/08/25 08:04:38;;;;;;;19.52;15.02;;;;;;;29.70;47.20;99303.16;5017548;28;20128;-85
2023/08/25 08:07:04;;;;;;;18.95;14.18;;;;;;;29.93;46.68;99310.47;5013352;28;20566;-84
2023/08/25 08:09:31;;;;;;;19.55;14.38;;;;;;;30.16;47.84;99301.75;5015606;28;20054;-83
2023/08/25 08:11:57;;;;;;;21.00;14.18;;;;;;;30.59;47.06;99296.25;5012097;28;20040;-83
2023/08/25 08:14:23;;;;;;;18.95;14.02;;;;;;;30.94;45.80;99296.81;5005365;28;20112;-82
2023/08/25 08:16:49;;;;;;;16.48;14.77;;;;;;;31.06;44.99;99300.81;5029890;28;20404;-85
2023/08/25 08:19:14;;;;;;;17.67;13.43;;;;;;;31.24;44.83;99308.69;5032919;28;20063;-82
2023/08/25 08:21:40;;;;;;;19.30;14.02;;;;;;;31.41;43.92;99296.81;5033943;28;20017;-84
2023/08/25 08:24:06;;;;;;;23.17;15.15;;;;;;;31.58;44.31;99305.09;5012833;28;20037;-83
2023/08/25 08:26:31;;;;;;;17.90;13.80;;;;;;;31.67;43.81;99293.53;5006558;28;20562;-84
2023/08/25 08:28:57;;;;;;;19.17;13.82;;;;;;;31.87;43.37;99290.09;5015357;28;20509;-83
2023/08/25 08:31:22;;;;;;;20.35;13.07;;;;;;;31.97;43.43;99292.97;5009611;28;20099;-84
2023/08/25 08:33:48;;;;;;;14.63;13.23;;;;;;;31.65;42.62;99284.53;5015828;28;20260;-83
2023/08/25 08:36:17;;;;;;;17.45;13.88;;;;;;;32.06;42.72;99284.25;5019033;28;20033;-84
2023/08/25 08:38:46;;;;;;;20.70;12.95;;;;;;;32.16;41.74;99285.81;5016867;28;20120;-81
2023/08/25 08:41:15;;;;;;;17.10;12.90;;;;;;;31.41;42.21;99293.09;5010519;28;20037;-83
2023/08/25 08:43:45;;;;;;;15.65;13.20;;;;;;;31.71;42.23;99268.13;5013316;28;20068;-83
2023/08/25 08:46:15;;;;;;;17.60;12.13;;;;;;;32.15;42.09;99283.41;5014178;28;20123;-84
2023/08/25 08:48:43;;;;;;;16.33;12.30;;;;;;;31.74;41.44;99270.06;5012885;28;20025;-83
2023/08/25 08:51:10;;;;;;;19.58;14.02;;;;;;;31.55;41.95;99277.19;5011259;28;20377;-83
2023/08/25 08:53:36;;;;;;;18.35;12.80;;;;;;;32.10;43.80;99279.09;5024931;28;20595;-83
2023/08/25 08:56:02;;;;;;;13.68;11.90;;;;;;;32.45;40.15;99277.78;5012016;28;20415;-83
2023/08/25 08:58:29;;;;;;;16.88;13.43;;;;;;;32.52;41.82;99271.63;5009298;28;20030;-83
2023/08/25 09:00:56;;;;;;;18.35;13.75;;;;;;;32.64;41.56;99266.88;5010698;28;20464;-83
2023/08/25 09:03:26;;;;;;;13.90;12.45;;;;;;;32.60;41.04;99251.78;5009302;28;20037;-83
2023/08/25 09:05:57;;;;;;;14.48;13.07;;;;;;;33.04;41.46;99256.94;5008950;28;20519;-83
2023/08/25 09:08:24;;;;;;;18.23;13.93;;;;;;;33.09;39.57;99246.75;5009096;28;20555;-83
2023/08/25 09:10:49;;;;;;;21.98;15.18;;;;;;;33.41;39.17;99255.75;5008490;28;20033;-83
2023/08/25 09:13:15;;;;;;;18.20;13.40;;;;;;;33.28;39.12;99249.44;5003242;28;20033;-83
2023/08/25 09:15:40;;;;;;;19.77;15.05;;;;;;;33.56;40.06;99260.78;5013768;28;20496;-84
2023/08/25 09:18:07;;;;;;;15.50;14.02;;;;;;;33.00;39.38;99256.31;5013736;28;20572;-83
2023/08/25 09:20:35;;;;;;;16.95;13.15;;;;;;;32.61;40.03;99238.94;5013639;28;20025;-84
2023/08/25 09:23:05;;;;;;;17.80;13.25;;;;;;;32.98;40.10;99253.13;5026015;28;20476;-83
2023/08/25 09:25:32;;;;;;;18.70;14.75;;;;;;;33.53;38.78;99251.00;5012410;28;20029;-83
2023/08/25 09:28:06;;;;;;;17.50;12.55;;;;;;;33.95;38.45;99246.13;5006751;28;20041;-83
2023/08/25 09:30:38;;;;;;;13.55;11.57;;;;;;;33.94;38.14;99241.63;5005041;28;20029;-83
2023/08/25 09:33:05;;;;;;;15.40;11.98;;;;;;;34.20;38.89;99243.06;5014399;28;20522;-82
2023/08/25 09:35:32;;;;;;;14.00;11.93;;;;;;;34.10;37.20;99237.41;5038259;28;20025;-82
2023/08/25 09:37:57;;;;;;;12.75;11.55;;;;;;;34.06;37.12;99236.03;5009856;28;20354;-82
2023/08/25 09:40:23;;;;;;;13.18;11.80;;;;;;;34.57;36.80;99230.91;5021458;28;20060;-82
2023/08/25 09:42:49;;;;;;;15.68;12.10;;;;;;;33.94;36.72;99237.91;5017099;28;20569;-82
2023/08/25 09:45:14;;;;;;;16.75;10.98;;;;;;;34.45;35.46;99232.88;5009708;28;20111;-82
2023/08/25 09:47:43;;;;;;;14.90;10.57;;;;;;;34.55;35.44;99230.63;5024769;28;20022;-82
2023/08/25 09:50:15;;;;;;;10.57;9.57;;;;;;;33.87;35.96;99213.03;5015030;28;20083;-82
2023/08/25 09:52:44;;;;;;;11.95;9.70;;;;;;;34.41;36.64;99211.97;5013124;28;20029;-82
2023/08/25 09:55:10;;;;;;;15.60;11.20;;;;;;;34.85;36.10;99210.16;5019751;28;20036;-82
2023/08/25 09:57:37;;;;;;;14.73;11.52;;;;;;;34.95;35.78;99213.69;5014916;28;20026;-82
2023/08/25 10:00:08;;;;;;;12.05;10.43;;;;;;;35.17;35.32;99210.22;5007322;28;20022;-82
2023/08/25 10:02:34;;;;;;;14.02;11.48;;;;;;;35.26;35.15;99204.25;5013361;28;20235;-82
2023/08/25 10:05:05;;;;;;;16.73;12.95;;;;;;;35.33;35.45;99205.09;5006946;28;20037;-86
2023/08/25 10:07:34;;;;;;;12.23;10.65;;;;;;;35.49;35.00;99192.03;5007912;28;20075;-85
2023/08/25 10:10:00;;;;;;;16.45;12.05;;;;;;;35.33;34.52;99194.25;5007945;28;20028;-86
2023/08/25 10:12:26;;;;;;;14.48;10.65;;;;;;;35.38;35.22;99187.72;5027911;28;20026;-86
2023/08/25 10:14:57;;;;;;;15.25;10.15;;;;;;;35.21;34.43;99167.22;5013082;28;20041;-87
2023/08/25 10:17:26;;;;;;;13.57;10.95;;;;;;;34.84;34.42;99185.31;5009104;28;20036;-86
2023/08/25 10:19:55;;;;;;;12.85;11.48;;;;;;;35.15;34.56;99186.69;5011512;28;20038;-86
2023/08/25 10:22:24;;;;;;;12.70;11.48;;;;;;;35.28;34.52;99183.38;5020421;28;20033;-86
2023/08/25 10:24:59;;;;;;;12.50;10.98;;;;;;;35.34;34.34;99180.53;5001848;28;20033;-86
2023/08/25 10:27:25;;;;;;;12.95;10.73;;;;;;;35.60;33.61;99170.97;5015087;28;20036;-86
2023/08/25 10:29:51;;;;;;;15.07;11.48;;;;;;;35.75;33.69;99170.81;5005518;28;20020;-86
2023/08/25 10:32:18;;;;;;;17.52;10.57;;;;;;;35.98;32.73;99174.66;5007019;28;20026;-86
2023/08/25 10:34:46;;;;;;;16.38;10.77;;;;;;;35.83;33.29;99175.63;5021521;28;20083;-86
2023/08/25 10:37:24;;;;;;;12.30;11.10;;;;;;;35.78;32.52;99163.97;5010316;28;20029;-87
2023/08/25 10:39:51;;;;;;;13.73;10.02;;;;;;;35.77;32.46;99165.28;5007762;28;20032;-85
2023/08/25 10:42:23;;;;;;;16.80;9.75;;;;;;;35.47;32.61;99159.75;5022130;28;20049;-86
2023/08/25 10:44:54;;;;;;;16.88;10.02;;;;;;;35.61;32.61;99158.84;5020217;28;20449;-86
2023/08/25 10:47:21;;;;;;;10.60;9.50;;;;;;;36.04;31.37;99160.94;5006646;28;20107;-86
2023/08/25 10:49:46;;;;;;;12.75;9.40;;;;;;;36.23;30.74;99164.25;5010019;28;20595;-86
2023/08/25 10:52:14;;;;;;;11.57;10.25;;;;;;;35.98;31.49;99155.09;5010553;28;20116;-86
2023/08/25 10:54:41;;;;;;;11.00;9.60;;;;;;;36.13;31.98;99150.41;5008308;28;20045;-87
2023/08/25 10:57:35;;;;;;;11.82;9.63;;;;;;;36.55;31.49;99168.34;5003220;28;20022;-86
2023/08/25 11:00:31;;;;;;;11.40;9.60;;;;;;;36.61;30.31;99164.13;5017745;28;20033;-87
2023/08/25 11:02:57;;;;;;;11.95;8.95;;;;;;;36.70;30.78;99154.38;5005842;28;20032;-86
2023/08/25 11:05:30;;;;;;;10.68;9.55;;;;;;;36.49;30.74;99160.38;5021101;28;20029;-86
2023/08/25 11:07:56;;;;;;;14.57;10.07;;;;;;;36.19;31.70;99143.31;5011481;28;20036;-86
2023/08/25 11:10:23;;;;;;;12.98;9.00;;;;;;;36.36;30.18;99139.69;5008639;28;20026;-87
2023/08/25 11:12:55;;;;;;;11.40;9.45;;;;;;;36.73;29.48;99149.59;5010184;28;20026;-86
2023/08/25 11:15:25;;;;;;;9.40;7.80;;;;;;;36.71;30.17;99141.41;5007544;28;20021;-86
2023/08/25 11:17:50;;;;;;;12.68;8.38;;;;;;;36.85;29.08;99133.72;5011289;28;20052;-86